createdAt,value
2019-02-03T00:01:18.082Z,-21172.06
2019-02-03T00:03:46.432Z,-21177.04
2019-02-03T00:06:14.787Z,-21169.08
2019-02-03T00:08:43.063Z,-21179.45
2019-02-03T00:11:11.399Z,-21182.86
2019-02-03T00:13:39.680Z,-21163.68
2019-02-03T00:16:08.111Z,-21139.23
2019-02-03T00:18:36.659Z,-21129.41
2019-02-03T00:21:05.176Z,-21123.72
2019-02-03T00:23:33.547Z,-21165.25
2019-02-03T00:26:02.220Z,-21166.81
2019-02-03T00:28:30.519Z,-21155.30
2019-02-03T00:30:58.815Z,-21161.13
2019-02-03T00:33:27.157Z,-21138.80
2019-02-03T00:35:55.523Z,-21138.66
2019-02-03T00:38:25.885Z,-21157.57
2019-02-03T00:40:53.826Z,-21144.92
2019-02-03T00:43:22.145Z,-21134.54
2019-02-03T00:45:50.389Z,-21136.67
2019-02-03T00:48:18.693Z,-21142.65
2019-02-03T00:50:47.144Z,-21158.42
2019-02-03T00:53:15.445Z,-21141.37
2019-02-03T00:55:43.779Z,-21151.04
2019-02-03T00:58:12.053Z,-21140.66
2019-02-03T01:00:40.410Z,-21136.53
2019-02-03T01:03:08.791Z,-21144.07
2019-02-03T01:05:37.319Z,-21155.16
2019-02-03T01:08:06.537Z,-21145.06
2019-02-03T01:10:34.812Z,-21153.73
2019-02-03T01:13:03.199Z,-21138.10
2019-02-03T01:15:32.448Z,-21157.57
2019-02-03T01:18:01.011Z,-21154.88
2019-02-03T01:20:29.323Z,-21151.60
2019-02-03T01:22:57.712Z,-21154.73
2019-02-03T01:25:26.201Z,-21158.00
2019-02-03T01:27:54.509Z,-21151.32
2019-02-03T01:30:23.933Z,-21142.08
2019-02-03T01:32:52.224Z,-21136.67
2019-02-03T01:35:20.527Z,-21137.81
2019-02-03T01:37:48.818Z,-21155.86
2019-02-03T01:40:20.874Z,-21154.45
2019-02-03T01:42:49.259Z,-21138.95
2019-02-03T01:45:21.915Z,-21149.04
2019-02-03T01:47:50.200Z,-21149.90
2019-02-03T01:50:18.546Z,-21147.48
2019-02-03T01:52:46.904Z,-21145.06
2019-02-03T01:55:21.207Z,-21159.42
2019-02-03T01:57:49.465Z,-21140.23
2019-02-03T02:00:20.558Z,-21153.88
2019-02-03T02:02:48.859Z,-21139.09
2019-02-03T02:05:17.430Z,-21147.34
2019-02-03T02:07:51.862Z,-21141.93
2019-02-03T02:10:18.800Z,-21144.49
2019-02-03T02:12:47.159Z,-21133.97
2019-02-03T02:15:17.484Z,-21136.53
2019-02-03T02:17:45.972Z,-21138.52
2019-02-03T02:20:19.306Z,-21133.97
2019-02-03T02:22:47.650Z,-21124.00
2019-02-03T02:25:16.039Z,-21128.28
2019-02-03T02:27:44.330Z,-21139.38
2019-02-03T02:30:15.468Z,-21144.49
2019-02-03T02:32:43.756Z,-21145.63
2019-02-03T02:35:12.630Z,-21129.41
2019-02-03T02:37:41.014Z,-21116.04
2019-02-03T02:40:17.929Z,-21126.00
2019-02-03T02:42:46.403Z,-21126.99
2019-02-03T02:45:15.701Z,-21129.55
2019-02-03T02:47:44.044Z,-21127.85
2019-02-03T02:50:15.359Z,-21128.70
2019-02-03T02:52:43.738Z,-21130.27
2019-02-03T02:55:12.101Z,-21114.47
2019-02-03T02:57:40.444Z,-21128.99
2019-02-03T03:00:12.127Z,-21134.54
2019-02-03T03:02:40.431Z,-21130.13
2019-02-03T03:05:09.941Z,-21152.03
2019-02-03T03:07:38.322Z,-21132.83
2019-02-03T03:10:09.335Z,-21137.10
2019-02-03T03:12:37.921Z,-21135.67
2019-02-03T03:15:09.894Z,-21140.23
2019-02-03T03:17:38.192Z,-21146.63
2019-02-03T03:20:09.071Z,-21130.69
2019-02-03T03:22:37.452Z,-21113.62
2019-02-03T03:25:09.456Z,-21115.04
2019-02-03T03:27:37.921Z,-21135.11
2019-02-03T03:30:09.571Z,-21132.83
2019-02-03T03:32:37.940Z,-21134.39
2019-02-03T03:35:06.869Z,-21109.49
2019-02-03T03:37:35.134Z,-21106.07
2019-02-03T03:40:05.611Z,-21132.54
2019-02-03T03:42:33.914Z,-21125.29
2019-02-03T03:45:02.256Z,-21132.83
2019-02-03T03:47:30.574Z,-21127.99
2019-02-03T03:49:58.853Z,-21118.03
2019-02-03T03:52:27.227Z,-21127.28
2019-02-03T03:54:55.528Z,-21129.41
2019-02-03T03:57:23.797Z,-21119.31
2019-02-03T03:59:52.140Z,-21122.87
2019-02-03T04:02:20.424Z,-21124.86
2019-02-03T04:04:48.719Z,-21113.05
2019-02-03T04:07:17.007Z,-21119.45
2019-02-03T04:09:45.267Z,-21127.28
2019-02-03T04:12:13.549Z,-21141.23
2019-02-03T04:14:41.943Z,-21124.57
2019-02-03T04:17:10.218Z,-21133.68
2019-02-03T04:19:38.525Z,-21138.80
2019-02-03T04:22:06.889Z,-21117.18
2019-02-03T04:24:35.186Z,-21136.53
2019-02-03T04:27:03.606Z,-21135.11
2019-02-03T04:29:31.893Z,-21104.93
2019-02-03T04:32:00.168Z,-21104.36
2019-02-03T04:34:29.979Z,-21112.34
2019-02-03T04:36:58.309Z,-21106.07
2019-02-03T04:39:26.680Z,-21118.31
2019-02-03T04:41:55.162Z,-21109.20
2019-02-03T04:44:23.435Z,-21123.72
2019-02-03T04:46:51.734Z,-21118.88
2019-02-03T04:49:20.052Z,-21124.57
2019-02-03T04:51:48.329Z,-21127.13
2019-02-03T04:54:16.630Z,-21132.26
2019-02-03T04:56:44.924Z,-21107.78
2019-02-03T04:59:13.195Z,-21146.06
2019-02-03T05:01:41.469Z,-21121.73
2019-02-03T05:04:09.725Z,-21120.30
2019-02-03T05:06:38.004Z,-21112.05
2019-02-03T05:09:11.147Z,-21117.74
2019-02-03T05:11:37.375Z,-21117.18
2019-02-03T05:14:05.883Z,-21118.60
2019-02-03T05:16:34.180Z,-21125.57
2019-02-03T05:19:02.522Z,-21125.57
2019-02-03T05:21:30.789Z,-21115.47
2019-02-03T05:23:59.058Z,-21121.02
2019-02-03T05:26:27.321Z,-21107.35
2019-02-03T05:28:55.594Z,-21109.06
2019-02-03T05:31:23.858Z,-21118.31
2019-02-03T05:33:52.123Z,-21111.62
2019-02-03T05:36:20.377Z,-21117.60
2019-02-03T05:38:50.364Z,-21119.45
2019-02-03T05:41:18.649Z,-21116.32
2019-02-03T05:43:46.906Z,-21110.05
2019-02-03T05:46:15.192Z,-21109.77
2019-02-03T05:48:43.645Z,-21102.08
2019-02-03T05:51:11.937Z,-21117.32
2019-02-03T05:53:40.227Z,-21125.15
2019-02-03T05:56:08.497Z,-21129.27
2019-02-03T05:58:36.786Z,-21131.69
2019-02-03T06:01:05.059Z,-21128.99
2019-02-03T06:03:33.348Z,-21129.98
2019-02-03T06:06:01.757Z,-21138.66
2019-02-03T06:08:30.025Z,-21128.85
2019-02-03T06:10:58.321Z,-21128.99
2019-02-03T06:13:26.640Z,-21125.57
2019-02-03T06:15:54.922Z,-21120.87
2019-02-03T06:18:23.209Z,-21126.85
2019-02-03T06:20:51.483Z,-21141.37
2019-02-03T06:23:19.733Z,-21120.87
2019-02-03T06:25:48.021Z,-21121.73
2019-02-03T06:28:16.266Z,-21124.86
2019-02-03T06:30:56.629Z,-21131.41
2019-02-03T06:33:25.433Z,-21137.81
2019-02-03T06:35:53.770Z,-21139.66
2019-02-03T06:38:22.026Z,-21140.09
2019-02-03T06:40:50.393Z,-21132.12
2019-02-03T06:43:18.674Z,-21122.44
2019-02-03T06:45:48.597Z,-21131.12
2019-02-03T06:48:27.272Z,-21127.13
2019-02-03T06:50:55.534Z,-21123.30
2019-02-03T06:53:23.812Z,-21107.78
2019-02-03T06:55:52.077Z,-21107.06
2019-02-03T06:58:20.331Z,-21120.16
2019-02-03T07:00:48.588Z,-21119.74
2019-02-03T07:03:16.870Z,-21109.06
2019-02-03T07:05:45.162Z,-21132.12
2019-02-03T07:08:13.440Z,-21112.34
2019-02-03T07:10:41.738Z,-21106.64
2019-02-03T07:13:09.968Z,-21095.24
2019-02-03T07:15:38.230Z,-21096.39
2019-02-03T07:18:06.865Z,-21112.62
2019-02-03T07:20:35.145Z,-21131.12
2019-02-03T07:23:03.509Z,-21118.60
2019-02-03T07:25:31.744Z,-21111.48
2019-02-03T07:28:00.029Z,-21113.62
2019-02-03T07:30:28.312Z,-21095.81
2019-02-03T07:32:56.589Z,-21115.18
2019-02-03T07:35:24.863Z,-21117.32
2019-02-03T07:37:53.137Z,-21106.64
2019-02-03T07:40:21.943Z,-21113.05
2019-02-03T07:42:50.286Z,-21110.91
2019-02-03T07:45:18.553Z,-21112.91
2019-02-03T07:47:46.826Z,-21118.74
2019-02-03T07:50:16.230Z,-21114.47
2019-02-03T07:52:44.508Z,-21106.64
2019-02-03T07:55:13.815Z,-21104.65
2019-02-03T07:57:42.083Z,-21119.74
2019-02-03T08:00:18.948Z,-21109.20
2019-02-03T08:02:47.338Z,-21105.50
2019-02-03T08:05:15.792Z,-21121.16
2019-02-03T08:07:44.054Z,-21099.80
2019-02-03T08:10:24.473Z,-21115.75
2019-02-03T08:12:44.800Z,-21130.84
2019-02-03T08:15:15.046Z,-21124.00
2019-02-03T08:17:43.386Z,-21123.44
2019-02-03T08:20:14.966Z,-21113.05
2019-02-03T08:22:43.242Z,-21134.39
2019-02-03T08:25:13.970Z,-21102.23
2019-02-03T08:27:42.256Z,-21131.98
2019-02-03T08:30:13.681Z,-21120.59
2019-02-03T08:32:42.086Z,-21120.59
2019-02-03T08:35:10.464Z,-21132.12
2019-02-03T08:37:38.843Z,-21119.31
2019-02-03T08:40:37.147Z,-21139.94
2019-02-03T08:43:03.949Z,-21112.76
2019-02-03T08:45:32.210Z,-21101.23
2019-02-03T08:48:00.550Z,-21110.05
2019-02-03T08:50:28.876Z,-21119.45
2019-02-03T08:52:57.415Z,-21122.01
2019-02-03T08:55:25.712Z,-21129.55
2019-02-03T08:57:53.965Z,-21126.57
2019-02-03T09:00:24.914Z,-21145.63
2019-02-03T09:02:53.236Z,-21138.80
2019-02-03T09:05:21.692Z,-21136.24
2019-02-03T09:07:50.034Z,-21143.93
2019-02-03T09:10:23.116Z,-21146.20
2019-02-03T09:12:51.514Z,-21152.74
2019-02-03T09:15:22.416Z,-21133.40
2019-02-03T09:17:50.926Z,-21139.94
2019-02-03T09:20:25.185Z,-21140.52
2019-02-03T09:22:53.534Z,-21111.20
2019-02-03T09:25:22.014Z,-21120.73
2019-02-03T09:27:50.335Z,-21132.97
2019-02-03T09:30:21.231Z,-21136.53
2019-02-03T09:32:49.588Z,-21133.54
2019-02-03T09:35:17.860Z,-21141.37
2019-02-03T09:37:46.288Z,-21147.48
2019-02-03T09:40:20.839Z,-21137.24
2019-02-03T09:42:49.195Z,-21131.12
2019-02-03T09:45:22.508Z,-21122.30
2019-02-03T09:47:50.742Z,-21130.69
2019-02-03T09:50:26.943Z,-21111.91
2019-02-03T09:52:56.563Z,-21112.34
2019-02-03T09:55:24.983Z,-21132.40
2019-02-03T09:57:53.247Z,-21119.45
2019-02-03T10:00:24.150Z,-21110.05
2019-02-03T10:02:52.875Z,-21109.49
2019-02-03T10:05:21.278Z,-21097.81
2019-02-03T10:07:49.569Z,-21108.35
2019-02-03T10:10:24.095Z,-21099.52
2019-02-03T10:12:52.370Z,-21110.48
2019-02-03T10:15:20.634Z,-21106.21
2019-02-03T10:17:48.986Z,-21110.48
2019-02-03T10:20:22.440Z,-21116.04
2019-02-03T10:22:51.168Z,-21115.04
2019-02-03T10:25:22.058Z,-21090.97
2019-02-03T10:27:50.492Z,-21115.47
2019-02-03T10:30:20.699Z,-21109.91
2019-02-03T10:32:49.789Z,-21096.10
2019-02-03T10:35:23.547Z,-21102.23
2019-02-03T10:37:51.078Z,-21110.20
2019-02-03T10:40:24.902Z,-21105.93
2019-02-03T10:42:55.227Z,-21111.48
2019-02-03T10:45:24.537Z,-21110.05
2019-02-03T10:47:52.899Z,-21122.59
2019-02-03T10:50:26.697Z,-21117.04
2019-02-03T10:52:55.538Z,-21116.04
2019-02-03T10:55:24.676Z,-21104.36
2019-02-03T10:57:53.015Z,-21123.30
2019-02-03T11:00:26.562Z,-21120.16
2019-02-03T11:02:54.988Z,-21103.93
2019-02-03T11:05:28.985Z,-21106.07
2019-02-03T11:07:57.641Z,-21113.19
2019-02-03T11:10:27.665Z,-21122.87
2019-02-03T11:12:56.204Z,-21134.68
2019-02-03T11:15:25.024Z,-21126.71
2019-02-03T11:17:53.740Z,-21123.72
2019-02-03T11:20:27.043Z,-21115.90
2019-02-03T11:22:55.921Z,-21141.93
2019-02-03T11:25:25.261Z,-21135.25
2019-02-03T11:27:53.583Z,-21140.66
2019-02-03T11:30:27.124Z,-21143.21
2019-02-03T11:33:05.108Z,-21141.37
2019-02-03T11:35:27.231Z,-21145.63
2019-02-03T11:37:56.124Z,-21142.79
2019-02-03T11:40:27.144Z,-21156.58
2019-02-03T11:42:55.638Z,-21137.53
2019-02-03T11:45:39.818Z,-21136.96
2019-02-03T11:48:32.272Z,-21154.59
2019-02-03T11:51:04.863Z,-21153.59
2019-02-03T11:53:33.169Z,-21171.92
2019-02-03T11:56:01.467Z,-21163.40
2019-02-03T11:58:30.081Z,-21160.13
2019-02-03T12:00:58.429Z,-21128.56
2019-02-03T12:03:26.918Z,-21143.79
2019-02-03T12:05:57.102Z,-21134.82
2019-02-03T12:08:25.458Z,-21163.26
2019-02-03T12:10:53.826Z,-21164.82
2019-02-03T12:13:22.106Z,-21147.34
2019-02-03T12:15:50.464Z,-21134.39
2019-02-03T12:18:18.743Z,-21124.29
2019-02-03T12:20:47.026Z,-21113.05
2019-02-03T12:23:15.317Z,-21152.17
2019-02-03T12:25:44.077Z,-21130.27
2019-02-03T12:28:12.501Z,-21120.02
2019-02-03T12:30:40.967Z,-21122.44
2019-02-03T12:33:09.304Z,-21111.62
2019-02-03T12:35:39.248Z,-21124.15
2019-02-03T12:38:07.909Z,-21123.44
2019-02-03T12:40:38.592Z,-21127.13
2019-02-03T12:43:07.177Z,-21121.44
2019-02-03T12:45:35.937Z,-21104.79
2019-02-03T12:48:05.608Z,-21123.30
2019-02-03T12:50:33.983Z,-21119.60
2019-02-03T12:53:02.376Z,-21107.35
2019-02-03T12:55:32.194Z,-21096.96
2019-02-03T12:58:00.473Z,-21100.09
2019-02-03T13:00:32.036Z,-21110.77
2019-02-03T13:03:00.443Z,-21123.44
2019-02-03T13:05:29.471Z,-21127.28
2019-02-03T13:07:59.522Z,-21135.25
2019-02-03T13:10:30.453Z,-21138.10
2019-02-03T13:12:58.764Z,-21128.85
2019-02-03T13:15:30.060Z,-21132.12
2019-02-03T13:17:58.412Z,-21136.24
2019-02-03T13:20:29.410Z,-21121.16
2019-02-03T13:22:58.048Z,-21138.80
2019-02-03T13:25:26.418Z,-21143.50
2019-02-03T13:27:54.775Z,-21161.13
2019-02-03T13:30:28.663Z,-21131.69
2019-02-03T13:32:56.921Z,-21125.15
2019-02-03T13:35:25.499Z,-21132.97
2019-02-03T13:37:55.511Z,-21118.74
2019-02-03T13:40:24.334Z,-21130.55
2019-02-03T13:42:52.901Z,-21148.90
2019-02-03T13:45:26.006Z,-21163.96
2019-02-03T13:47:57.112Z,-21153.73
2019-02-03T13:50:27.418Z,-21128.85
2019-02-03T13:52:56.984Z,-21143.64
2019-02-03T13:55:26.365Z,-21130.98
2019-02-03T13:57:55.030Z,-21148.90
2019-02-03T14:00:32.649Z,-21155.30
2019-02-03T14:03:00.994Z,-21147.34
2019-02-03T14:05:29.287Z,-21144.35
2019-02-03T14:07:57.646Z,-21139.09
2019-02-03T14:10:31.346Z,-21139.09
2019-02-03T14:13:00.269Z,-21140.80
2019-02-03T14:15:28.616Z,-21133.82
2019-02-03T14:17:56.956Z,-21130.84
2019-02-03T14:20:27.736Z,-21157.29
2019-02-03T14:22:56.793Z,-21123.16
2019-02-03T14:25:25.697Z,-21129.84
2019-02-03T14:27:54.041Z,-21138.52
2019-02-03T14:30:39.158Z,-21137.81
2019-02-03T14:32:58.580Z,-21136.67
2019-02-03T14:35:27.115Z,-21129.55
2019-02-03T14:37:55.496Z,-21109.77
2019-02-03T14:40:24.572Z,-21117.04
2019-02-03T14:43:01.098Z,-21115.90
2019-02-03T14:45:25.462Z,-21114.32
2019-02-03T14:47:53.817Z,-21128.28
2019-02-03T14:50:24.802Z,-21131.41
2019-02-03T14:52:56.021Z,-21142.93
2019-02-03T14:55:30.226Z,-21115.90
2019-02-03T14:57:58.514Z,-21142.93
2019-02-03T15:00:35.786Z,-21129.98
2019-02-03T15:03:07.189Z,-21117.04
2019-02-03T15:05:35.492Z,-21133.40
2019-02-03T15:08:04.047Z,-21136.67
2019-02-03T15:10:32.311Z,-21115.47
2019-02-03T15:13:00.709Z,-21129.13
2019-02-03T15:15:30.132Z,-21141.37
2019-02-03T15:17:59.074Z,-21126.57
2019-02-03T15:20:28.139Z,-21139.09
2019-02-03T15:22:56.536Z,-21139.94
2019-02-03T15:25:28.102Z,-21134.82
2019-02-03T15:27:58.119Z,-21133.11
2019-02-03T15:30:41.887Z,-21125.29
2019-02-03T15:33:10.273Z,-21112.62
2019-02-03T15:35:38.724Z,-21099.38
2019-02-03T15:38:07.815Z,-21102.93
2019-02-03T15:40:36.150Z,-21122.73
2019-02-03T15:43:04.945Z,-21116.04
2019-02-03T15:45:33.316Z,-21118.03
2019-02-03T15:48:01.568Z,-21113.62
2019-02-03T15:50:30.897Z,-21137.24
2019-02-03T15:52:59.237Z,-21147.48
2019-02-03T15:55:30.295Z,-21144.35
2019-02-03T15:57:58.758Z,-21139.80
2019-02-03T16:00:32.218Z,-21130.55
2019-02-03T16:03:00.508Z,-21135.81
2019-02-03T16:05:28.843Z,-21148.05
2019-02-03T16:07:57.140Z,-21149.90
2019-02-03T16:10:26.917Z,-21146.77
2019-02-03T16:12:55.182Z,-21118.74
2019-02-03T16:15:23.630Z,-21099.80
2019-02-03T16:17:51.869Z,-21117.04
2019-02-03T16:20:25.272Z,-21127.13
2019-02-03T16:22:53.665Z,-21131.41
2019-02-03T16:25:22.581Z,-21120.30
2019-02-03T16:27:50.945Z,-21134.82
2019-02-03T16:30:35.057Z,-21123.16
2019-02-03T16:33:03.673Z,-21123.72
2019-02-03T16:35:31.958Z,-21119.74
2019-02-03T16:38:00.395Z,-21117.32
2019-02-03T16:40:30.977Z,-21127.42
2019-02-03T16:42:59.440Z,-21128.85
2019-02-03T16:45:27.767Z,-21126.71
2019-02-03T16:47:56.050Z,-21122.16
2019-02-03T16:50:29.523Z,-21134.68
2019-02-03T16:52:59.176Z,-21141.93
2019-02-03T16:55:27.530Z,-21142.79
2019-02-03T16:57:55.817Z,-21132.83
2019-02-03T17:00:28.981Z,-21123.16
2019-02-03T17:02:57.452Z,-21128.70
2019-02-03T17:05:30.211Z,-21147.05
2019-02-03T17:08:00.145Z,-21133.68
2019-02-03T17:10:28.507Z,-21138.38
2019-02-03T17:12:56.817Z,-21151.60
2019-02-03T17:15:27.932Z,-21129.55
2019-02-03T17:17:56.489Z,-21126.29
2019-02-03T17:20:24.798Z,-21136.10
2019-02-03T17:22:53.069Z,-21135.53
2019-02-03T17:25:39.616Z,-21118.03
2019-02-03T17:28:07.938Z,-21135.67
2019-02-03T17:30:36.280Z,-21134.54
2019-02-03T17:33:04.844Z,-21131.84
2019-02-03T17:35:33.481Z,-21141.93
2019-02-03T17:38:03.869Z,-21130.84
2019-02-03T17:40:32.226Z,-21141.65
2019-02-03T17:43:00.567Z,-21143.21
2019-02-03T17:45:28.894Z,-21150.33
2019-02-03T17:47:57.211Z,-21137.53
2019-02-03T17:50:28.994Z,-21129.27
2019-02-03T17:52:57.450Z,-21124.57
2019-02-03T17:55:25.802Z,-21116.32
2019-02-03T17:57:54.067Z,-21121.59
2019-02-03T18:00:26.591Z,-21125.57
2019-02-03T18:02:54.964Z,-21122.30
2019-02-03T18:05:23.756Z,-21109.77
2019-02-03T18:07:52.037Z,-21104.93
2019-02-03T18:10:21.880Z,-21132.12
2019-02-03T18:12:50.581Z,-21131.98
2019-02-03T18:15:19.139Z,-21128.28
2019-02-03T18:17:47.496Z,-21128.56
2019-02-03T18:20:21.596Z,-21129.41
2019-02-03T18:22:49.865Z,-21130.98
2019-02-03T18:25:18.207Z,-21125.43
2019-02-03T18:27:46.535Z,-21125.71
2019-02-03T18:30:17.939Z,-21126.85
2019-02-03T18:32:46.202Z,-21125.43
2019-02-03T18:35:15.401Z,-21124.57
2019-02-03T18:37:43.688Z,-21114.75
2019-02-03T18:40:14.685Z,-21124.72
2019-02-03T18:42:42.939Z,-21119.60
2019-02-03T18:45:13.867Z,-21118.88
2019-02-03T18:47:42.276Z,-21131.98
2019-02-03T18:50:13.183Z,-21139.23
2019-02-03T18:52:41.546Z,-21129.70
2019-02-03T18:55:13.391Z,-21135.53
2019-02-03T18:57:41.761Z,-21118.31
2019-02-03T19:00:21.472Z,-21124.29
2019-02-03T19:02:50.016Z,-21126.99
2019-02-03T19:05:23.756Z,-21129.70
2019-02-03T19:07:52.108Z,-21132.83
2019-02-03T19:10:22.737Z,-21123.58
2019-02-03T19:12:51.013Z,-21133.54
2019-02-03T19:15:20.335Z,-21117.60
2019-02-03T19:17:48.617Z,-21129.84
2019-02-03T19:20:25.379Z,-21134.54
2019-02-03T19:22:53.697Z,-21122.30
2019-02-03T19:25:22.034Z,-21123.01
2019-02-03T19:27:50.299Z,-21128.28
2019-02-03T19:30:20.505Z,-21129.41
2019-02-03T19:32:51.517Z,-21137.67
2019-02-03T19:35:28.692Z,-21142.50
2019-02-03T19:37:56.999Z,-21131.98
2019-02-03T19:40:27.987Z,-21130.84
2019-02-03T19:42:56.317Z,-21140.80
2019-02-03T19:45:27.293Z,-21138.38
2019-02-03T19:47:55.628Z,-21122.01
2019-02-03T19:50:29.357Z,-21130.98
2019-02-03T19:52:57.655Z,-21129.41
2019-02-03T19:55:26.019Z,-21121.02
2019-02-03T19:57:54.348Z,-21120.02
2019-02-03T20:00:24.982Z,-21121.87
2019-02-03T20:02:53.569Z,-21124.15
2019-02-03T20:05:21.929Z,-21121.59
2019-02-03T20:07:50.598Z,-21139.38
2019-02-03T20:10:24.384Z,-21125.57
2019-02-03T20:12:53.256Z,-21128.70
2019-02-03T20:15:21.596Z,-21144.78
2019-02-03T20:17:50.014Z,-21132.12
2019-02-03T20:20:21.482Z,-21124.43
2019-02-03T20:22:50.101Z,-21118.03
2019-02-03T20:25:20.959Z,-21130.69
2019-02-03T20:27:49.315Z,-21126.43
2019-02-03T20:30:19.751Z,-21124.57
2019-02-03T20:32:48.082Z,-21126.57
2019-02-03T20:35:18.379Z,-21124.43
2019-02-03T20:37:47.001Z,-21120.73
2019-02-03T20:40:21.078Z,-21114.90
2019-02-03T20:42:49.417Z,-21129.98
2019-02-03T20:45:21.077Z,-21131.98
2019-02-03T20:47:48.591Z,-21143.64
2019-02-03T20:50:21.718Z,-21147.91
2019-02-03T20:52:50.241Z,-21145.21
2019-02-03T20:55:20.302Z,-21148.76
2019-02-03T20:57:48.765Z,-21124.43
2019-02-03T21:00:25.956Z,-21132.12
2019-02-03T21:02:54.319Z,-21139.09
2019-02-03T21:05:22.609Z,-21121.44
2019-02-03T21:07:51.327Z,-21137.67
2019-02-03T21:10:22.022Z,-21140.94
2019-02-03T21:12:50.428Z,-21109.77
2019-02-03T21:15:20.625Z,-21096.24
2019-02-03T21:17:49.335Z,-21102.93
2019-02-03T21:20:23.279Z,-21087.70
2019-02-03T21:22:51.919Z,-21083.55
2019-02-03T21:25:20.879Z,-21083.55
2019-02-03T21:27:49.270Z,-21095.24
2019-02-03T21:30:20.160Z,-21092.68
2019-02-03T21:32:48.484Z,-21111.34
2019-02-03T21:35:17.056Z,-21104.08
2019-02-03T21:37:45.331Z,-21090.97
2019-02-03T21:40:22.169Z,-21102.93
2019-02-03T21:42:50.696Z,-21104.22
2019-02-03T21:45:21.775Z,-21100.80
2019-02-03T21:47:49.230Z,-21100.66
2019-02-03T21:50:20.395Z,-21101.52
2019-02-03T21:52:48.662Z,-21110.77
2019-02-03T21:55:19.047Z,-21101.66
2019-02-03T21:57:47.625Z,-21087.55
2019-02-03T22:00:21.840Z,-21091.26
2019-02-03T22:02:50.193Z,-21080.70
2019-02-03T22:05:18.715Z,-21091.11
2019-02-03T22:07:47.048Z,-21101.94
2019-02-03T22:10:20.833Z,-21101.37
2019-02-03T22:12:49.203Z,-21097.67
2019-02-03T22:15:17.886Z,-21109.49
2019-02-03T22:17:46.153Z,-21114.47
2019-02-03T22:20:17.126Z,-21093.54
2019-02-03T22:22:45.389Z,-21088.97
2019-02-03T22:25:13.931Z,-21097.95
2019-02-03T22:27:42.396Z,-21093.68
2019-02-03T22:30:14.128Z,-21096.96
2019-02-03T22:32:42.375Z,-21085.41
2019-02-03T22:35:10.912Z,-21084.27
2019-02-03T22:37:39.276Z,-21078.28
2019-02-03T22:40:10.744Z,-21086.98
2019-02-03T22:42:39.280Z,-21071.01
2019-02-03T22:45:10.666Z,-21105.64
2019-02-03T22:47:38.991Z,-21086.41
2019-02-03T22:50:13.224Z,-21092.68
2019-02-03T22:52:41.488Z,-21099.38
2019-02-03T22:55:11.349Z,-21101.37
2019-02-03T22:57:39.627Z,-21092.25
2019-02-03T23:00:51.926Z,-21085.84
2019-02-03T23:03:22.656Z,-21090.68
2019-02-03T23:05:51.180Z,-21096.39
2019-02-03T23:08:21.084Z,-21085.41
2019-02-03T23:10:49.724Z,-21096.67
2019-02-03T23:13:18.090Z,-21098.66
2019-02-03T23:15:46.720Z,-21109.49
2019-02-03T23:18:15.020Z,-21107.63
2019-02-03T23:20:43.300Z,-21097.24
2019-02-03T23:23:11.577Z,-21081.84
2019-02-03T23:25:39.864Z,-21079.99
2019-02-03T23:28:08.137Z,-21079.00
2019-02-03T23:30:36.439Z,-21089.68
2019-02-03T23:33:04.871Z,-21110.20
2019-02-03T23:35:33.200Z,-21095.39
2019-02-03T23:38:01.451Z,-21087.27
2019-02-03T23:40:29.734Z,-21096.39
2019-02-03T23:42:58.896Z,-21099.09
2019-02-03T23:45:27.455Z,-21078.14
2019-02-03T23:47:55.735Z,-21085.98
2019-02-03T23:50:24.130Z,-21084.98
2019-02-03T23:52:52.385Z,-21075.71
2019-02-03T23:55:20.693Z,-21076.71
2019-02-03T23:57:48.920Z,-21081.41
